Ridgecrest, North Carolina
Current Conditions -  °F | °C
As of 10:35 PM on Saturday 22 Nov 2014 (Local Time) from KAVL Reporting Station
Overcast Overcast  
Wind Chill: 43°   Ceiling: 2800
Heat Index: 45°   Visibility: 10mi
Dew Point: 20°   Wind: 5mph
Humidity: 37%   Direction: 140°SE
Pressure: 30.3"   Gusts: NA
Location:  35.62°N, 82.28°W
Report Text: KAVL 230335Z 14004KT 10SM BKN028 OVC038 07/M07 A3030 RMK AO2 T00721067
Loading
Personal Weather Stations






























Interactive Weather Map New forecast layout! Learn more

10-Day Weather Forecast

Advertisements
Track Severe Weather on mobile